Arklow Spray — C6VK8 — position and weather

sailwx.info

Track history (hours):
 
Tides and Currents Weather Stations Pressure Air Temp Water Temp Dewpoint Dewpoint Depression Visibility Wind Speed Wind Dir Waves Ship Positions

Arklow Spray

Last reported at 2017-Feb-21 16:33 UTC. Time now 2017-Feb-21 21:39 UTC.
Position N 62°05' E 004°30'.

Length 90 m; draft 4 m.

MMSI: 309914000.

Date/timePositionNaut miles runAvg speedWind from/ knotsBaromVisibWave heightAir tempDewpointWater temp
2017-Feb-21 16:33N 62°05' E 004°30'8 8.1
2017-Feb-21 15:33N 62°11' E 004°42'8 8.4
2017-Feb-21 14:33N 62°17' E 004°55'8 8.2
2017-Feb-21 13:33N 62°22' E 005°08'9 8.5
2017-Feb-21 12:33N 62°29' E 005°21'9 8.6
2017-Feb-21 11:33N 62°35' E 005°34'9 9.1
2017-Feb-21 10:33N 62°41' E 005°47'9 9.0
2017-Feb-21 09:32N 62°48' E 006°01'9 9.2
2017-Feb-21 08:32N 62°55' E 006°15'10 9.8
2017-Feb-21 07:33N 63°00' E 006°33'1010.5
2017-Feb-21 06:33N 63°06' E 006°52'9 9.5
2017-Feb-21 05:33N 63°10' E 007°11'10 9.8
2017-Feb-21 04:33N 63°14' E 007°30'7 7.1
2017-Feb-21 03:33N 63°10' E 007°44'1010.0
2017-Feb-21 02:33N 63°00' E 007°44'9 8.9
2017-Feb-21 01:33N 62°58' E 008°03'1110.5
2017-Feb-21 00:33N 62°48' E 008°14'1110.8
2017-Feb-20 23:33N 62°42' E 008°32'1 0.7
2017-Feb-20 22:25N 62°41' E 008°33'0 0.0
2017-Feb-20 21:31N 62°41' E 008°33'0 0.0
2017-Feb-20 20:31N 62°41' E 008°33'0 0.0
2017-Feb-20 19:31N 62°41' E 008°33'0 0.0
2017-Feb-20 18:31N 62°41' E 008°33'0 0.0
2017-Feb-20 17:31N 62°41' E 008°33'0 0.0
2017-Feb-20 16:34N 62°41' E 008°33'0 0.0
2017-Feb-20 15:34N 62°41' E 008°33'0 0.0
2017-Feb-20 14:33N 62°41' E 008°33'0 0.0
2017-Feb-20 13:33N 62°41' E 008°33'0 0.0
2017-Feb-20 12:33N 62°41' E 008°33'0 0.0
2017-Feb-20 11:33N 62°41' E 008°33'0 0.0
2017-Feb-20 10:33N 62°41' E 008°33'0 0.0
2017-Feb-20 09:33N 62°41' E 008°33'0 0.0
2017-Feb-20 08:33N 62°41' E 008°33'0 0.0
2017-Feb-20 07:33N 62°41' E 008°33'0 0.0
2017-Feb-20 06:33N 62°41' E 008°33'0 0.0
2017-Feb-20 05:33N 62°41' E 008°33'0 0.0
2017-Feb-20 04:33N 62°41' E 008°33'0 0.0
2017-Feb-20 03:33N 62°41' E 008°33'0 0.0
2017-Feb-20 02:33N 62°41' E 008°33'0 0.0
2017-Feb-20 01:33N 62°41' E 008°33'0 0.0
2017-Feb-20 00:33N 62°41' E 008°33'0 0.0
2017-Feb-19 23:33N 62°41' E 008°33'0 0.0
2017-Feb-19 22:33N 62°41' E 008°33'0 0.0
2017-Feb-19 21:33N 62°41' E 008°33'0 0.0
2017-Feb-19 20:33N 62°41' E 008°33'0 0.0
2017-Feb-19 19:33N 62°41' E 008°33'0 0.0
2017-Feb-19 18:33N 62°41' E 008°33'0 0.0
2017-Feb-19 17:33N 62°41' E 008°33'5 5.4
2017-Feb-19 16:33N 62°45' E 008°25'1111.1
2017-Feb-19 15:33N 62°53' E 008°08'9 9.1
2017-Feb-19 14:33N 62°58' E 007°51'4 3.4
2017-Feb-19 13:31N 63°01' E 007°48'0 0.0
2017-Feb-19 12:31N 63°01' E 007°48'0 0.0
2017-Feb-19 11:31N 63°01' E 007°48'0 0.0
2017-Feb-19 10:31N 63°01' E 007°48'0 0.0
2017-Feb-19 09:31N 63°01' E 007°48'0 0.0
2017-Feb-19 08:31N 63°01' E 007°48'0 0.0
2017-Feb-19 07:31N 63°01' E 007°48'0 0.0
2017-Feb-19 06:31N 63°01' E 007°48'0 0.1
2017-Feb-19 05:31N 63°01' E 007°48'0 0.0
2017-Feb-19 04:31N 63°01' E 007°48'0 0.0
2017-Feb-19 03:31N 63°01' E 007°48'0 0.0
2017-Feb-19 02:31N 63°01' E 007°48'0 0.0
2017-Feb-19 01:31N 63°01' E 007°48'0 0.0
2017-Feb-19 00:31N 63°01' E 007°48'0 0.0
2017-Feb-18 23:31N 63°01' E 007°48'0 0.0
2017-Feb-18 22:31N 63°01' E 007°48'0 0.0
2017-Feb-18 21:31N 63°01' E 007°48'0 0.0
2017-Feb-18 20:31N 63°01' E 007°48'0 0.0
2017-Feb-18 19:31N 63°01' E 007°48'0 0.0
2017-Feb-18 18:31N 63°01' E 007°48'0 0.0
2017-Feb-18 17:31N 63°01' E 007°48'0 0.0
2017-Feb-18 16:31N 63°01' E 007°48'0 0.0
2017-Feb-18 15:31N 63°01' E 007°48'0 0.0
2017-Feb-18 14:31N 63°01' E 007°48'0 0.0
2017-Feb-18 13:31N 63°01' E 007°48'0 0.0
2017-Feb-18 12:31N 63°01' E 007°48'0 0.0
2017-Feb-18 11:31N 63°01' E 007°48'0 0.0
2017-Feb-18 10:31N 63°01' E 007°48'0 0.0
2017-Feb-18 09:31N 63°01' E 007°48'0 0.0
2017-Feb-18 08:34N 63°01' E 007°48'0 0.0
2017-Feb-18 07:34N 63°01' E 007°48'0 0.0
2017-Feb-18 06:33N 63°01' E 007°48'0 0.0
2017-Feb-18 05:33N 63°01' E 007°48'0 0.0
2017-Feb-18 04:33N 63°01' E 007°48'0 0.0
2017-Feb-18 03:33N 63°01' E 007°48'0 0.1
2017-Feb-18 02:33N 63°01' E 007°48'0 0.1
2017-Feb-18 01:33N 63°01' E 007°48'0 0.0
2017-Feb-18 00:33N 63°01' E 007°48'0 0.0
2017-Feb-17 23:33N 63°01' E 007°48'0 0.0
2017-Feb-17 22:33N 63°01' E 007°48'0 0.0
2017-Feb-17 21:33N 63°01' E 007°48'0 0.0
2017-Feb-17 20:33N 63°01' E 007°48'0 0.0
2017-Feb-17 19:33N 63°01' E 007°48'0 0.0
2017-Feb-17 18:33N 63°01' E 007°48'0 0.0
2017-Feb-17 17:33N 63°01' E 007°48'7 6.7
2017-Feb-17 16:33N 63°07' E 007°54'1010.2
2017-Feb-17 15:33N 63°15' E 007°38'1110.7
2017-Feb-17 14:33N 63°11' E 007°16'1110.7
2017-Feb-17 13:33N 63°06' E 006°55'1211.4
2017-Feb-17 12:32N 63°00' E 006°33'1111.3
2017-Feb-17 11:33N 62°53' E 006°15'1111.0
2017-Feb-17 10:32N 62°45' E 005°57'1111.5
2017-Feb-17 09:33N 62°38' E 005°38'1111.0
2017-Feb-17 08:33N 62°30' E 005°21'1110.7
2017-Feb-17 07:33N 62°23' E 005°03'1110.6
2017-Feb-17 06:33N 62°16' E 004°47'1110.9
2017-Feb-17 05:33N 62°08' E 004°29'40310.0
2017-Feb-15 13:11N 56°20' W 002°06'710.8
2017-Feb-15 12:32N 56°16' W 002°15'1110.9
2017-Feb-15 11:33N 56°09' W 002°31'1110.9
2017-Feb-15 10:33N 56°05' W 002°48'5 4.6
2017-Feb-15 09:32N 56°03' W 002°56'0 0.0
2017-Feb-15 08:32N 56°03' W 002°56'0 0.0
2017-Feb-15 07:32N 56°03' W 002°56'0 0.0
2017-Feb-15 06:32N 56°03' W 002°56'0 0.1
2017-Feb-15 05:32N 56°02' W 002°56'0 0.0
2017-Feb-15 04:32N 56°02' W 002°56'0 0.0
2017-Feb-15 03:32N 56°02' W 002°56'0 0.0
2017-Feb-15 02:32N 56°02' W 002°56'0 0.0
2017-Feb-15 01:32N 56°02' W 002°56'0 0.0
2017-Feb-15 00:32N 56°02' W 002°56'0 0.0
2017-Feb-14 23:32N 56°03' W 002°56'0 0.0
2017-Feb-14 22:32N 56°03' W 002°56'0 0.1
2017-Feb-14 21:32N 56°03' W 002°56'0 0.0
2017-Feb-14 20:32N 56°03' W 002°56'0 0.0
2017-Feb-14 19:32N 56°03' W 002°56'0 0.1
2017-Feb-14 18:32N 56°03' W 002°56'1 1.1
2017-Feb-14 17:34N 56°02' W 002°58'8 7.9
2017-Feb-14 16:34N 55°59' W 003°11'1 0.5
2017-Feb-14 15:32N 55°59' W 003°11'0 0.0
2017-Feb-14 14:32N 55°59' W 003°11'0 0.0
2017-Feb-14 13:32N 55°59' W 003°11'0 0.0
2017-Feb-14 12:32N 55°59' W 003°11'0 0.0
2017-Feb-14 11:32N 55°59' W 003°11'0 0.0
2017-Feb-14 10:32N 55°59' W 003°11'0 0.0
2017-Feb-14 09:32N 55°59' W 003°11'0 0.0
2017-Feb-14 08:32N 55°59' W 003°11'0 0.0
2017-Feb-14 07:32N 55°59' W 003°11'0 0.0
2017-Feb-14 06:32N 55°59' W 003°11'0 0.0
2017-Feb-14 05:32N 55°59' W 003°11'0 0.0
2017-Feb-14 04:32N 55°59' W 003°11'0 0.0
2017-Feb-14 03:32N 55°59' W 003°11'0 0.0
2017-Feb-14 02:32N 55°59' W 003°11'0 0.0
2017-Feb-14 01:32N 55°59' W 003°11'0 0.0
2017-Feb-14 00:32N 55°59' W 003°11'0 0.0
2017-Feb-13 23:32N 55°59' W 003°11'0 0.0
2017-Feb-13 22:32N 55°59' W 003°11'0 0.0
2017-Feb-13 21:32N 55°59' W 003°11'0 0.4
2017-Feb-13 20:34N 55°59' W 003°11'5 4.8
2017-Feb-13 19:33N 56°02' W 003°03'2 1.5
2017-Feb-13 18:33N 56°02' W 003°01'0 0.0
2017-Feb-13 17:33N 56°02' W 003°01'3 3.0
2017-Feb-13 16:33N 56°03' W 002°56'1010.3
2017-Feb-13 15:33N 56°07' W 002°39'9 9.1
2017-Feb-13 14:33N 56°14' W 002°28'1010.3
2017-Feb-13 13:33N 56°24' W 002°22'1010.1
2017-Feb-13 12:33N 56°33' W 002°16'29 9.2
2017-Feb-13 09:23N 57°01' W 001°59'7 8.1
2017-Feb-13 08:33N 57°07' W 001°55'9 7.8
2017-Feb-13 07:26N 57°15' W 001°50'7 7.7
2017-Feb-13 06:33N 57°22' W 001°45'8 7.9
2017-Feb-13 05:33N 57°29' W 001°41'8 8.2
2017-Feb-13 04:33N 57°37' W 001°40'8 8.2
2017-Feb-13 03:32N 57°45' W 001°47'57 9.1
2017-Feb-12 21:16N 58°32' W 002°49'810.6
2017-Feb-12 20:33N 58°38' W 002°57'1312.6
2017-Feb-12 19:33N 58°42' W 003°20'1010.2
2017-Feb-12 18:34N 58°42' W 003°40'10 9.8
2017-Feb-12 17:32N 58°42' W 003°59'143 7.0
2017-Feb-11 21:14N 56°30' W 005°41'7 9.1
2017-Feb-11 20:31N 56°34' W 005°32'0 0.0
2017-Feb-11 19:34N 56°34' W 005°32'0 0.0
2017-Feb-11 18:33N 56°34' W 005°32'0 0.0
2017-Feb-11 17:33N 56°34' W 005°32'  
Track history (hours):
 
Tides and Currents Weather Stations Pressure Air Temp Water Temp Dewpoint Dewpoint Depression Visibility Wind Speed Wind Dir Waves Ship Positions

Arklow Spray

Last reported at 2017-Feb-21 16:33 UTC. Time now 2017-Feb-21 21:39 UTC.
Position N 62°05' E 004°30'.

Length 90 m; draft 4 m.

MMSI: 309914000.

Date/timePositionNaut miles runAvg speedWind from/ knotsBaromVisibWave heightAir tempDewpointWater temp
2017-Feb-21 16:33N 62°05' E 004°30'8 8.1
2017-Feb-21 15:33N 62°11' E 004°42'8 8.4
2017-Feb-21 14:33N 62°17' E 004°55'8 8.2
2017-Feb-21 13:33N 62°22' E 005°08'9 8.5
2017-Feb-21 12:33N 62°29' E 005°21'9 8.6
2017-Feb-21 11:33N 62°35' E 005°34'9 9.1
2017-Feb-21 10:33N 62°41' E 005°47'9 9.0
2017-Feb-21 09:32N 62°48' E 006°01'9 9.2
2017-Feb-21 08:32N 62°55' E 006°15'10 9.8
2017-Feb-21 07:33N 63°00' E 006°33'1010.5
2017-Feb-21 06:33N 63°06' E 006°52'9 9.5
2017-Feb-21 05:33N 63°10' E 007°11'10 9.8
2017-Feb-21 04:33N 63°14' E 007°30'7 7.1
2017-Feb-21 03:33N 63°10' E 007°44'1010.0
2017-Feb-21 02:33N 63°00' E 007°44'9 8.9
2017-Feb-21 01:33N 62°58' E 008°03'1110.5
2017-Feb-21 00:33N 62°48' E 008°14'1110.8
2017-Feb-20 23:33N 62°42' E 008°32'1 0.7
2017-Feb-20 22:25N 62°41' E 008°33'0 0.0
2017-Feb-20 21:31N 62°41' E 008°33'0 0.0
2017-Feb-20 20:31N 62°41' E 008°33'0 0.0
2017-Feb-20 19:31N 62°41' E 008°33'0 0.0
2017-Feb-20 18:31N 62°41' E 008°33'0 0.0
2017-Feb-20 17:31N 62°41' E 008°33'0 0.0
2017-Feb-20 16:34N 62°41' E 008°33'0 0.0
2017-Feb-20 15:34N 62°41' E 008°33'0 0.0
2017-Feb-20 14:33N 62°41' E 008°33'0 0.0
2017-Feb-20 13:33N 62°41' E 008°33'0 0.0
2017-Feb-20 12:33N 62°41' E 008°33'0 0.0
2017-Feb-20 11:33N 62°41' E 008°33'0 0.0
2017-Feb-20 10:33N 62°41' E 008°33'0 0.0
2017-Feb-20 09:33N 62°41' E 008°33'0 0.0
2017-Feb-20 08:33N 62°41' E 008°33'0 0.0
2017-Feb-20 07:33N 62°41' E 008°33'0 0.0
2017-Feb-20 06:33N 62°41' E 008°33'0 0.0
2017-Feb-20 05:33N 62°41' E 008°33'0 0.0
2017-Feb-20 04:33N 62°41' E 008°33'0 0.0
2017-Feb-20 03:33N 62°41' E 008°33'0 0.0
2017-Feb-20 02:33N 62°41' E 008°33'0 0.0
2017-Feb-20 01:33N 62°41' E 008°33'0 0.0
2017-Feb-20 00:33N 62°41' E 008°33'0 0.0
2017-Feb-19 23:33N 62°41' E 008°33'0 0.0
2017-Feb-19 22:33N 62°41' E 008°33'0 0.0
2017-Feb-19 21:33N 62°41' E 008°33'0 0.0
2017-Feb-19 20:33N 62°41' E 008°33'0 0.0
2017-Feb-19 19:33N 62°41' E 008°33'0 0.0
2017-Feb-19 18:33N 62°41' E 008°33'0 0.0
2017-Feb-19 17:33N 62°41' E 008°33'5 5.4
2017-Feb-19 16:33N 62°45' E 008°25'1111.1
2017-Feb-19 15:33N 62°53' E 008°08'9 9.1
2017-Feb-19 14:33N 62°58' E 007°51'4 3.4
2017-Feb-19 13:31N 63°01' E 007°48'0 0.0
2017-Feb-19 12:31N 63°01' E 007°48'0 0.0
2017-Feb-19 11:31N 63°01' E 007°48'0 0.0
2017-Feb-19 10:31N 63°01' E 007°48'0 0.0
2017-Feb-19 09:31N 63°01' E 007°48'0 0.0
2017-Feb-19 08:31N 63°01' E 007°48'0 0.0
2017-Feb-19 07:31N 63°01' E 007°48'0 0.0
2017-Feb-19 06:31N 63°01' E 007°48'0 0.1
2017-Feb-19 05:31N 63°01' E 007°48'0 0.0
2017-Feb-19 04:31N 63°01' E 007°48'0 0.0
2017-Feb-19 03:31N 63°01' E 007°48'0 0.0
2017-Feb-19 02:31N 63°01' E 007°48'0 0.0
2017-Feb-19 01:31N 63°01' E 007°48'0 0.0
2017-Feb-19 00:31N 63°01' E 007°48'0 0.0
2017-Feb-18 23:31N 63°01' E 007°48'0 0.0
2017-Feb-18 22:31N 63°01' E 007°48'0 0.0
2017-Feb-18 21:31N 63°01' E 007°48'0 0.0
2017-Feb-18 20:31N 63°01' E 007°48'0 0.0
2017-Feb-18 19:31N 63°01' E 007°48'0 0.0
2017-Feb-18 18:31N 63°01' E 007°48'0 0.0
2017-Feb-18 17:31N 63°01' E 007°48'0 0.0
2017-Feb-18 16:31N 63°01' E 007°48'0 0.0
2017-Feb-18 15:31N 63°01' E 007°48'0 0.0
2017-Feb-18 14:31N 63°01' E 007°48'0 0.0
2017-Feb-18 13:31N 63°01' E 007°48'0 0.0
2017-Feb-18 12:31N 63°01' E 007°48'0 0.0
2017-Feb-18 11:31N 63°01' E 007°48'0 0.0
2017-Feb-18 10:31N 63°01' E 007°48'0 0.0
2017-Feb-18 09:31N 63°01' E 007°48'0 0.0
2017-Feb-18 08:34N 63°01' E 007°48'0 0.0
2017-Feb-18 07:34N 63°01' E 007°48'0 0.0
2017-Feb-18 06:33N 63°01' E 007°48'0 0.0
2017-Feb-18 05:33N 63°01' E 007°48'0 0.0
2017-Feb-18 04:33N 63°01' E 007°48'0 0.0
2017-Feb-18 03:33N 63°01' E 007°48'0 0.1
2017-Feb-18 02:33N 63°01' E 007°48'0 0.1
2017-Feb-18 01:33N 63°01' E 007°48'0 0.0
2017-Feb-18 00:33N 63°01' E 007°48'0 0.0
2017-Feb-17 23:33N 63°01' E 007°48'0 0.0
2017-Feb-17 22:33N 63°01' E 007°48'0 0.0
2017-Feb-17 21:33N 63°01' E 007°48'0 0.0
2017-Feb-17 20:33N 63°01' E 007°48'0 0.0
2017-Feb-17 19:33N 63°01' E 007°48'0 0.0
2017-Feb-17 18:33N 63°01' E 007°48'0 0.0
2017-Feb-17 17:33N 63°01' E 007°48'7 6.7
2017-Feb-17 16:33N 63°07' E 007°54'1010.2
2017-Feb-17 15:33N 63°15' E 007°38'1110.7
2017-Feb-17 14:33N 63°11' E 007°16'1110.7
2017-Feb-17 13:33N 63°06' E 006°55'1211.4
2017-Feb-17 12:32N 63°00' E 006°33'1111.3
2017-Feb-17 11:33N 62°53' E 006°15'1111.0
2017-Feb-17 10:32N 62°45' E 005°57'1111.5
2017-Feb-17 09:33N 62°38' E 005°38'1111.0
2017-Feb-17 08:33N 62°30' E 005°21'1110.7
2017-Feb-17 07:33N 62°23' E 005°03'1110.6
2017-Feb-17 06:33N 62°16' E 004°47'1110.9
2017-Feb-17 05:33N 62°08' E 004°29'40310.0
2017-Feb-15 13:11N 56°20' W 002°06'710.8
2017-Feb-15 12:32N 56°16' W 002°15'1110.9
2017-Feb-15 11:33N 56°09' W 002°31'1110.9
2017-Feb-15 10:33N 56°05' W 002°48'5 4.6
2017-Feb-15 09:32N 56°03' W 002°56'0 0.0
2017-Feb-15 08:32N 56°03' W 002°56'0 0.0
2017-Feb-15 07:32N 56°03' W 002°56'0 0.0
2017-Feb-15 06:32N 56°03' W 002°56'0 0.1
2017-Feb-15 05:32N 56°02' W 002°56'0 0.0
2017-Feb-15 04:32N 56°02' W 002°56'0 0.0
2017-Feb-15 03:32N 56°02' W 002°56'0 0.0
2017-Feb-15 02:32N 56°02' W 002°56'0 0.0
2017-Feb-15 01:32N 56°02' W 002°56'0 0.0
2017-Feb-15 00:32N 56°02' W 002°56'0 0.0
2017-Feb-14 23:32N 56°03' W 002°56'0 0.0
2017-Feb-14 22:32N 56°03' W 002°56'0 0.1
2017-Feb-14 21:32N 56°03' W 002°56'0 0.0
2017-Feb-14 20:32N 56°03' W 002°56'0 0.0
2017-Feb-14 19:32N 56°03' W 002°56'0 0.1
2017-Feb-14 18:32N 56°03' W 002°56'1 1.1
2017-Feb-14 17:34N 56°02' W 002°58'8 7.9
2017-Feb-14 16:34N 55°59' W 003°11'1 0.5
2017-Feb-14 15:32N 55°59' W 003°11'0 0.0
2017-Feb-14 14:32N 55°59' W 003°11'0 0.0
2017-Feb-14 13:32N 55°59' W 003°11'0 0.0
2017-Feb-14 12:32N 55°59' W 003°11'0 0.0
2017-Feb-14 11:32N 55°59' W 003°11'0 0.0
2017-Feb-14 10:32N 55°59' W 003°11'0 0.0
2017-Feb-14 09:32N 55°59' W 003°11'0 0.0
2017-Feb-14 08:32N 55°59' W 003°11'0 0.0
2017-Feb-14 07:32N 55°59' W 003°11'0 0.0
2017-Feb-14 06:32N 55°59' W 003°11'0 0.0
2017-Feb-14 05:32N 55°59' W 003°11'0 0.0
2017-Feb-14 04:32N 55°59' W 003°11'0 0.0
2017-Feb-14 03:32N 55°59' W 003°11'0 0.0
2017-Feb-14 02:32N 55°59' W 003°11'0 0.0
2017-Feb-14 01:32N 55°59' W 003°11'0 0.0
2017-Feb-14 00:32N 55°59' W 003°11'0 0.0
2017-Feb-13 23:32N 55°59' W 003°11'0 0.0
2017-Feb-13 22:32N 55°59' W 003°11'0 0.0
2017-Feb-13 21:32N 55°59' W 003°11'0 0.4
2017-Feb-13 20:34N 55°59' W 003°11'5 4.8
2017-Feb-13 19:33N 56°02' W 003°03'2 1.5
2017-Feb-13 18:33N 56°02' W 003°01'0 0.0
2017-Feb-13 17:33N 56°02' W 003°01'3 3.0
2017-Feb-13 16:33N 56°03' W 002°56'1010.3
2017-Feb-13 15:33N 56°07' W 002°39'9 9.1
2017-Feb-13 14:33N 56°14' W 002°28'1010.3
2017-Feb-13 13:33N 56°24' W 002°22'1010.1
2017-Feb-13 12:33N 56°33' W 002°16'29 9.2
2017-Feb-13 09:23N 57°01' W 001°59'7 8.1
2017-Feb-13 08:33N 57°07' W 001°55'9 7.8
2017-Feb-13 07:26N 57°15' W 001°50'7 7.7
2017-Feb-13 06:33N 57°22' W 001°45'8 7.9
2017-Feb-13 05:33N 57°29' W 001°41'8 8.2
2017-Feb-13 04:33N 57°37' W 001°40'8 8.2
2017-Feb-13 03:32N 57°45' W 001°47'57 9.1
2017-Feb-12 21:16N 58°32' W 002°49'810.6
2017-Feb-12 20:33N 58°38' W 002°57'1312.6
2017-Feb-12 19:33N 58°42' W 003°20'1010.2
2017-Feb-12 18:34N 58°42' W 003°40'10 9.8
2017-Feb-12 17:32N 58°42' W 003°59'143 7.0
2017-Feb-11 21:14N 56°30' W 005°41'7 9.1
2017-Feb-11 20:31N 56°34' W 005°32'0 0.0
2017-Feb-11 19:34N 56°34' W 005°32'0 0.0
2017-Feb-11 18:33N 56°34' W 005°32'0 0.0
2017-Feb-11 17:33N 56°34' W 005°32'  

Dump ship's entire track history